Terminal Aerodrome Forecast
Issued by NWS

Home | Current Version | Previous Version | Text Only | Print | Product List | Glossary On
Versions: 1 2 3 4 5 6 7 8 9 10 11 12
000
FTUS45 KABQ 251739
TAFROW
TAF
KROW 251739Z 2518/2618 22011KT P6SM SKC
      TEMPO 2518/2520 22011G21KT
     FM252000 23021G31KT P6SM SKC
     FM260200 23011KT P6SM SKC
     FM261600 20013G23KT P6SM SKC=

USA.gov is the U.S. government's official web portal to all federal, state and local government web resources and services.